Dallas, PA (18612)

8:22 PM EDT on July 23, 2016 (GMT -0400)
Captains Quarters Shavertown | | Change Station

Elev 1145 ft 41.33 °N, 75.94 °W | Updated 3 minutes ago

Clear
Clear
85.5 °F
Feels Like 84 °F
N
2.2
Wind Variable Wind from West

Today
High -- | Low -- °F
--% Chance of Precip.
Yesterday
High -- | Low -- °F
Precip. -- in
Pressure 29.87 in
Visibility 10.0 miles
Clouds Clear
Heat Index 84 °F
Dew Point 55 °F
Humidity 35%
Rainfall 0.00 in
Snow Depth Not available.
5:50 AM 8:29 PM
Waning Gibbous, 81% visible
METAR KAVP 232354Z AUTO 33010KT 10SM CLR 32/11 A2990 RMK AO2 SLP114 T03170106 10361 20317 53015
Pressure 29.87 in
Visibility 10.0 miles
Clouds Clear
Heat Index 84 °F
Dew Point 55 °F
Humidity 35%
Rainfall 0.00 in
Snow Depth Not available.
5:50 AM 8:29 PM
Waning Gibbous, 81% visible
METAR KAVP 232354Z AUTO 33010KT 10SM CLR 32/11 A2990 RMK AO2 SLP114 T03170106 10361 20317 53015

10-Day Weather Forecast

Almanac

Astronomy

Jul. 23, 2016 Rise Set
Actual Time
Civil Twilight
Nautical Twilight
Astronomical Twilight
Moon
Length of Visible Light
Length of Day
Tomorrow will be .
, % of the Moon is Illuminated

Today's Extremes

State Highs State Lows

Community

WunderPhotos

Upload Photos

1,926,979 photos uploaded!

WunderBlog® & News

Nearby

Air Quality

  Air Quality AQ Index Pollutant
Not available.

Snow Depth

Station Depth Elevation

Earthquake Activity

City Distance Mag. Time & Date
Minimum magnitude displayed is 2.5.

Coastal Water Temperatures

Place Temperature

Stations

Nearby Weather Stations

Station Location Temp. Windchill Dew Point Humidity Wind Precip. Elev Updated Type
                   

Watches & Warnings

There are currently no watches in effect.